Time;durP1;ratioP1;P1;durP2;ratioP2;P2;SDS_P1;SDS_P2;PMS_P1;PMS_P2;Temp;Humidity;BMP_temperature;BMP_pressure;BME280_temperature;BME280_humidity;BME280_pressure;Samples;Min_cycle;Max_cycle;Signal;HPM_P1;HPM_P2
2022/05/18 00:01:16;;;;;;;6.30;3.97;;;18.20;87.60;;;;;;5080827;28;20212;-45
2022/05/18 00:03:44;;;;;;;3.80;3.20;;;18.10;87.70;;;;;;5080117;28;20429;-45
2022/05/18 00:06:11;;;;;;;3.77;3.37;;;18.10;88.20;;;;;;5080580;28;20428;-45
2022/05/18 00:08:37;;;;;;;4.00;3.60;;;18.10;88.50;;;;;;5080689;28;20444;-45
2022/05/18 00:11:08;;;;;;;5.43;3.83;;;18.10;88.80;;;;;;5080793;28;20482;-45
2022/05/18 00:13:34;;;;;;;3.30;3.10;;;18.00;88.90;;;;;;5080461;28;20227;-44
2022/05/18 00:15:59;;;;;;;3.90;3.60;;;18.00;89.00;;;;;;5080464;28;20423;-45
2022/05/18 00:18:25;;;;;;;3.83;3.30;;;18.00;89.40;;;;;;5080331;28;20425;-45
2022/05/18 00:20:51;;;;;;;4.30;3.43;;;18.00;89.40;;;;;;5080342;28;20490;-45
2022/05/18 00:23:16;;;;;;;3.93;3.53;;;18.00;89.70;;;;;;5080891;28;20190;-44
2022/05/18 00:25:42;;;;;;;3.80;3.37;;;18.00;89.90;;;;;;5080276;28;20195;-45
2022/05/18 00:28:08;;;;;;;3.93;3.63;;;18.00;89.70;;;;;;5080742;28;20241;-45
2022/05/18 00:30:35;;;;;;;3.70;3.40;;;17.90;89.60;;;;;;5062959;28;20179;-45
2022/05/18 00:33:04;;;;;;;4.10;3.70;;;17.90;90.00;;;;;;5080128;28;20470;-45
2022/05/18 00:35:31;;;;;;;3.73;3.40;;;17.90;90.00;;;;;;5079641;28;20859;-45
2022/05/18 00:37:57;;;;;;;4.00;3.70;;;17.80;90.00;;;;;;5080276;28;20423;-45
2022/05/18 00:40:23;;;;;;;3.90;3.60;;;17.80;90.10;;;;;;5080220;28;20431;-45
2022/05/18 00:42:48;;;;;;;6.33;4.03;;;17.80;90.20;;;;;;5080753;28;20413;-45
2022/05/18 00:45:15;;;;;;;4.23;3.83;;;17.70;90.20;;;;;;5079772;28;20181;-45
2022/05/18 00:47:41;;;;;;;3.90;3.60;;;17.70;90.20;;;;;;5062087;28;20171;-45
2022/05/18 00:50:16;;;;;;;4.20;3.80;;;17.70;90.20;;;;;;5080054;28;20446;-45
2022/05/18 00:53:11;;;;;;;4.03;3.73;;;17.70;90.40;;;;;;5079724;28;20492;-45
2022/05/18 00:55:42;;;;;;;5.70;3.70;;;17.70;90.60;;;;;;5069297;28;20844;-45
2022/05/18 00:58:27;;;;;;;4.00;3.70;;;17.60;90.60;;;;;;5062407;28;20860;-45
2022/05/18 01:00:53;;;;;;;6.40;3.73;;;17.60;90.60;;;;;;5062220;28;20473;-44
2022/05/18 01:03:22;;;;;;;4.17;3.73;;;17.60;90.60;;;;;;5062586;28;20485;-45
2022/05/18 01:05:54;;;;;;;3.50;3.20;;;17.50;90.80;;;;;;5079733;28;20485;-44
2022/05/18 01:08:31;;;;;;;4.60;4.20;;;17.50;90.80;;;;;;5079988;28;20434;-45
2022/05/18 01:10:56;;;;;;;4.70;4.30;;;17.50;91.00;;;;;;5078558;28;20443;-45
2022/05/18 01:13:22;;;;;;;3.93;3.57;;;17.40;91.10;;;;;;5079438;28;20412;-45
2022/05/18 01:15:47;;;;;;;3.77;3.47;;;17.40;91.10;;;;;;5078110;28;20201;-45
2022/05/18 01:18:13;;;;;;;4.80;4.30;;;17.40;91.10;;;;;;5061179;28;20184;-45
2022/05/18 01:20:42;;;;;;;4.53;4.13;;;17.40;91.30;;;;;;5079333;28;20378;-42
2022/05/18 01:23:26;;;;;;;4.73;3.73;;;17.40;91.30;;;;;;5061569;28;20180;-43
2022/05/18 01:26:28;;;;;;;4.63;4.20;;;17.30;91.30;;;;;;5079661;28;20419;-42
2022/05/18 01:28:57;;;;;;;4.00;3.70;;;17.30;91.40;;;;;;5079602;28;20424;-43
2022/05/18 01:31:41;;;;;;;4.83;3.83;;;17.30;91.40;;;;;;5079083;28;20466;-43
2022/05/18 01:34:07;;;;;;;4.87;4.00;;;17.30;91.60;;;;;;5079279;28;20525;-43
2022/05/18 01:36:32;;;;;;;4.23;3.83;;;17.20;91.70;;;;;;5079178;28;20424;-43
2022/05/18 01:39:20;;;;;;;3.90;3.60;;;17.20;91.70;;;;;;5079323;28;20177;-43
2022/05/18 01:42:10;;;;;;;6.90;3.50;;;17.20;91.80;;;;;;5078177;28;20585;-43
2022/05/18 01:44:39;;;;;;;4.10;3.70;;;17.10;91.80;;;;;;5077263;28;20451;-43
2022/05/18 01:47:05;;;;;;;4.13;3.57;;;17.10;91.80;;;;;;5076297;28;20471;-43
2022/05/18 01:49:32;;;;;;;6.27;3.90;;;16.90;92.00;;;;;;5077253;28;20444;-44
2022/05/18 01:51:58;;;;;;;4.43;4.00;;;16.80;92.20;;;;;;5075989;28;20826;-43
2022/05/18 01:54:23;;;;;;;4.20;3.83;;;16.70;92.40;;;;;;5075442;28;20718;-44
2022/05/18 01:56:49;;;;;;;4.00;3.70;;;16.70;92.80;;;;;;5075078;28;20197;-42
2022/05/18 01:59:15;;;;;;;4.07;3.67;;;16.70;93.00;;;;;;5058570;28;20174;-43
2022/05/18 02:01:41;;;;;;;4.93;3.57;;;16.60;93.00;;;;;;5075912;28;20214;-43
2022/05/18 02:04:06;;;;;;;4.10;3.80;;;16.60;92.90;;;;;;5077059;28;20178;-43
2022/05/18 02:06:33;;;;;;;6.03;4.30;;;16.60;93.00;;;;;;5060604;28;20178;-43
2022/05/18 02:09:00;;;;;;;4.47;4.17;;;16.60;93.10;;;;;;5078226;28;20173;-43
2022/05/18 02:11:26;;;;;;;4.87;4.47;;;16.60;93.20;;;;;;5078530;28;20438;-43
2022/05/18 02:13:51;;;;;;;4.50;4.10;;;16.60;93.10;;;;;;5078788;28;20421;-43
2022/05/18 02:16:18;;;;;;;3.40;3.10;;;16.60;93.10;;;;;;5078341;28;20427;-43
2022/05/18 02:18:44;;;;;;;3.73;3.40;;;16.60;93.10;;;;;;5077678;28;20170;-43
2022/05/18 02:21:11;;;;;;;3.37;3.07;;;16.60;93.10;;;;;;5077943;28;20479;-43
2022/05/18 02:23:38;;;;;;;4.90;4.50;;;16.60;93.00;;;;;;5077843;28;20179;-44
2022/05/18 02:26:10;;;;;;;5.00;3.90;;;16.60;93.10;;;;;;5078335;28;20486;-43
2022/05/18 02:28:35;;;;;;;4.77;4.37;;;16.60;93.40;;;;;;5077043;28;20772;-43
2022/05/18 02:31:01;;;;;;;4.20;3.80;;;16.60;93.10;;;;;;5076675;28;20613;-44
2022/05/18 02:33:27;;;;;;;4.20;3.70;;;16.60;93.10;;;;;;5076445;28;20618;-43
2022/05/18 02:35:52;;;;;;;4.17;3.87;;;16.50;93.10;;;;;;5077113;28;20193;-43
2022/05/18 02:38:18;;;;;;;4.83;4.33;;;16.50;93.20;;;;;;5077094;28;20181;-43
2022/05/18 02:40:44;;;;;;;4.20;3.80;;;16.40;93.30;;;;;;5076753;28;20207;-43
2022/05/18 02:43:10;;;;;;;4.13;3.73;;;16.40;93.50;;;;;;5077510;28;20516;-43
2022/05/18 02:45:35;;;;;;;4.13;3.70;;;16.30;93.50;;;;;;5077528;28;20247;-43
2022/05/18 02:48:01;;;;;;;4.13;3.73;;;16.30;93.70;;;;;;5077173;28;20171;-43
2022/05/18 02:50:28;;;;;;;3.83;3.43;;;16.40;93.80;;;;;;5077518;28;20535;-44
2022/05/18 02:52:53;;;;;;;4.97;3.90;;;16.40;93.90;;;;;;5078263;28;20416;-43
2022/05/18 02:58:03;;;;;;;4.07;3.77;;;16.40;93.70;;;;;;5076260;28;20591;-44
2022/05/18 03:00:29;;;;;;;5.17;4.10;;;16.30;93.70;;;;;;5076393;28;20427;-43
2022/05/18 03:02:55;;;;;;;4.23;3.93;;;16.40;93.90;;;;;;5076889;28;20408;-43
2022/05/18 03:05:21;;;;;;;5.10;4.10;;;16.40;93.90;;;;;;5075768;28;20548;-44
2022/05/18 03:07:46;;;;;;;4.20;3.80;;;16.40;93.80;;;;;;5076625;28;20180;-43
2022/05/18 03:10:15;;;;;;;4.20;3.80;;;16.30;93.50;;;;;;5076369;28;20834;-43
2022/05/18 03:12:43;;;;;;;4.00;3.63;;;16.30;93.50;;;;;;5077303;28;20172;-44
2022/05/18 03:15:10;;;;;;;4.20;3.80;;;16.30;93.60;;;;;;5077754;28;20834;-41
2022/05/18 03:17:35;;;;;;;5.03;4.63;;;16.30;93.70;;;;;;5077724;28;20756;-43
2022/05/18 03:20:01;;;;;;;4.30;3.77;;;16.30;93.50;;;;;;5076610;28;20507;-43
2022/05/18 03:25:11;;;;;;;4.30;3.90;;;16.20;93.50;;;;;;5077160;28;20189;-42
2022/05/18 03:27:43;;;;;;;4.90;4.50;;;16.20;93.60;;;;;;5076864;28;20412;-43
2022/05/18 03:30:10;;;;;;;4.00;3.70;;;16.20;93.60;;;;;;5077422;28;20461;-42
2022/05/18 03:32:36;;;;;;;4.60;4.20;;;16.20;93.70;;;;;;5077302;28;20468;-44
2022/05/18 03:35:02;;;;;;;3.87;3.47;;;16.20;93.80;;;;;;5077258;28;20836;-43
2022/05/18 03:37:28;;;;;;;4.67;4.33;;;16.20;93.80;;;;;;5077205;28;20419;-43
2022/05/18 03:39:54;;;;;;;4.20;3.90;;;16.20;93.80;;;;;;5077128;28;20424;-43
2022/05/18 03:42:19;;;;;;;5.40;4.90;;;16.20;93.80;;;;;;5077210;28;20202;-43
2022/05/18 03:44:45;;;;;;;4.97;4.50;;;16.20;93.70;;;;;;5077530;28;20177;-43
2022/05/18 03:47:11;;;;;;;5.40;4.70;;;16.20;93.70;;;;;;5059498;28;20276;-43
2022/05/18 03:49:36;;;;;;;5.67;4.30;;;16.10;93.60;;;;;;5077014;28;20193;-43
2022/05/18 03:52:03;;;;;;;4.80;4.40;;;16.10;93.80;;;;;;5075348;28;20597;-43
2022/05/18 03:54:29;;;;;;;4.80;4.40;;;16.00;93.80;;;;;;5074782;28;20603;-44
2022/05/18 03:56:55;;;;;;;5.30;4.43;;;16.00;94.10;;;;;;5074564;28;20431;-43
2022/05/18 03:59:21;;;;;;;5.10;4.70;;;16.00;94.00;;;;;;5057442;28;20431;-43
2022/05/18 04:01:46;;;;;;;4.93;4.50;;;16.00;94.10;;;;;;5058512;28;20592;-44
2022/05/18 04:04:12;;;;;;;4.60;4.20;;;16.00;94.10;;;;;;5075388;28;20577;-43
2022/05/18 04:06:38;;;;;;;4.60;4.20;;;16.10;94.10;;;;;;5075129;28;20171;-44
2022/05/18 04:09:04;;;;;;;4.83;4.43;;;16.10;94.00;;;;;;5075930;28;20189;-43
2022/05/18 04:11:29;;;;;;;4.70;4.30;;;16.10;94.00;;;;;;5077606;28;20184;-44
2022/05/18 04:13:55;;;;;;;4.07;3.70;;;16.20;93.90;;;;;;5079054;28;20243;-43
2022/05/18 04:16:21;;;;;;;4.20;3.90;;;16.20;93.60;;;;;;5080060;28;20169;-44
2022/05/18 04:18:47;;;;;;;4.20;3.80;;;16.30;93.70;;;;;;5079278;28;20473;-43
2022/05/18 04:21:13;;;;;;;4.53;4.13;;;16.30;93.70;;;;;;5078798;28;20212;-44
2022/05/18 04:23:39;;;;;;;4.67;4.20;;;16.30;93.60;;;;;;5040404;28;20190;-43
2022/05/18 04:26:06;;;;;;;7.63;4.17;;;16.40;93.40;;;;;;5055946;28;20878;-44
2022/05/18 04:28:32;;;;;;;4.70;4.30;;;16.40;93.40;;;;;;5054222;28;20502;-44
2022/05/18 04:30:58;;;;;;;4.20;3.90;;;16.50;93.30;;;;;;5053788;28;20444;-44
2022/05/18 04:33:24;;;;;;;5.53;4.20;;;16.50;93.30;;;;;;5054455;28;20476;-44
2022/05/18 04:35:50;;;;;;;4.83;4.27;;;16.60;93.20;;;;;;5055719;28;20275;-43
2022/05/18 04:38:20;;;;;;;5.23;4.80;;;16.60;93.10;;;;;;5056716;28;20468;-44
2022/05/18 04:40:47;;;;;;;4.80;4.30;;;16.70;93.10;;;;;;5056447;28;20486;-43
2022/05/18 04:43:14;;;;;;;4.90;4.40;;;16.70;93.00;;;;;;5058500;28;20447;-43
2022/05/18 04:45:44;;;;;;;5.87;5.07;;;16.80;93.00;;;;;;5040672;28;20428;-43
2022/05/18 04:48:18;;;;;;;4.23;3.93;;;16.80;92.80;;;;;;5058365;28;20411;-43
2022/05/18 04:50:44;;;;;;;5.07;4.50;;;16.90;92.80;;;;;;5058060;28;20528;-43
2022/05/18 04:53:11;;;;;;;8.20;4.43;;;16.90;92.70;;;;;;5040577;28;20826;-43
2022/05/18 04:55:36;;;;;;;5.50;4.50;;;17.00;92.70;;;;;;5057937;28;20873;-43
2022/05/18 04:58:03;;;;;;;4.77;4.37;;;17.00;92.70;;;;;;5057230;28;20451;-43
2022/05/18 05:00:29;;;;;;;5.60;4.53;;;17.10;92.70;;;;;;5058348;28;20178;-44
2022/05/18 05:02:57;;;;;;;5.13;4.70;;;17.10;92.70;;;;;;5059519;28;20425;-43
2022/05/18 05:05:23;;;;;;;5.57;4.97;;;17.20;92.60;;;;;;5055708;28;20426;-44
2022/05/18 05:07:49;;;;;;;7.03;5.67;;;17.30;92.50;;;;;;5056354;28;20439;-43
2022/05/18 05:10:17;;;;;;;5.50;4.43;;;17.40;92.30;;;;;;5054636;28;20838;-44
2022/05/18 05:12:42;;;;;;;4.50;4.10;;;17.50;92.20;;;;;;5052847;28;21011;-43
2022/05/18 05:15:09;;;;;;;5.13;4.40;;;17.60;92.10;;;;;;5055289;28;20460;-45
2022/05/18 05:17:35;;;;;;;5.80;4.87;;;17.70;92.00;;;;;;5055585;28;20207;-45
2022/05/18 05:20:01;;;;;;;8.00;5.20;;;17.80;91.90;;;;;;5053814;28;20453;-45
2022/05/18 05:22:27;;;;;;;6.83;4.87;;;17.90;91.70;;;;;;5066600;28;20312;-45
2022/05/18 05:24:53;;;;;;;5.27;4.17;;;18.00;91.40;;;;;;5075183;28;20503;-45
2022/05/18 05:27:18;;;;;;;5.53;4.87;;;18.10;91.20;;;;;;5073741;28;20737;-44
2022/05/18 05:29:44;;;;;;;5.50;5.00;;;18.20;91.20;;;;;;5073588;28;20416;-45
2022/05/18 05:32:10;;;;;;;5.30;4.80;;;18.30;91.10;;;;;;5072604;28;20266;-45
2022/05/18 05:34:36;;;;;;;4.40;4.00;;;18.40;91.10;;;;;;5074049;28;20199;-45
2022/05/18 05:37:03;;;;;;;4.77;4.27;;;18.40;90.80;;;;;;5074198;28;20445;-43
2022/05/18 05:39:28;;;;;;;4.80;4.30;;;18.60;90.80;;;;;;5074485;28;20425;-45
2022/05/18 05:41:54;;;;;;;5.27;4.87;;;18.70;90.50;;;;;;5074523;28;20481;-45
2022/05/18 05:44:20;;;;;;;4.70;4.30;;;18.80;90.30;;;;;;5074146;28;20170;-45
2022/05/18 05:46:46;;;;;;;5.10;4.60;;;19.00;90.20;;;;;;5071719;28;20185;-45
2022/05/18 05:49:12;;;;;;;7.20;5.77;;;19.10;90.10;;;;;;5075035;28;20408;-45
2022/05/18 05:51:38;;;;;;;6.67;5.30;;;19.20;90.20;;;;;;5072181;28;20175;-45
2022/05/18 05:54:04;;;;;;;6.10;5.50;;;19.20;90.10;;;;;;5074917;28;20420;-45
2022/05/18 05:56:30;;;;;;;5.70;4.67;;;19.40;89.10;;;;;;5076640;28;20185;-45
2022/05/18 05:58:56;;;;;;;5.43;4.57;;;19.40;89.60;;;;;;5074744;28;20573;-45
2022/05/18 06:01:21;;;;;;;5.37;4.90;;;19.50;89.80;;;;;;5074474;28;20414;-45
2022/05/18 06:03:49;;;;;;;4.90;4.50;;;19.50;88.30;;;;;;5075499;28;20860;-45
2022/05/18 06:06:19;;;;;;;4.80;4.40;;;19.60;88.30;;;;;;5074439;28;20314;-46
2022/05/18 06:08:44;;;;;;;4.93;4.53;;;19.70;88.10;;;;;;5072153;28;20412;-45
2022/05/18 06:11:11;;;;;;;5.10;4.70;;;19.90;85.90;;;;;;5073120;28;20492;-45
2022/05/18 06:13:37;;;;;;;6.93;4.23;;;20.00;86.00;;;;;;5074371;28;20181;-45
2022/05/18 06:16:03;;;;;;;6.63;4.50;;;20.10;86.00;;;;;;5073540;28;20478;-45
2022/05/18 06:18:30;;;;;;;7.20;4.70;;;20.20;85.70;;;;;;5072667;28;20418;-45
2022/05/18 06:20:57;;;;;;;7.17;4.40;;;20.30;84.70;;;;;;5073176;28;20484;-45
2022/05/18 06:23:23;;;;;;;5.87;3.93;;;20.40;84.30;;;;;;5075071;28;20420;-45
2022/05/18 06:25:48;;;;;;;4.70;4.30;;;20.40;83.40;;;;;;5075362;28;20443;-45
2022/05/18 06:28:14;;;;;;;5.97;4.40;;;20.50;82.50;;;;;;5074196;28;20442;-45
2022/05/18 06:30:41;;;;;;;7.03;4.90;;;20.60;82.10;;;;;;5073343;28;20520;-45
2022/05/18 06:33:07;;;;;;;4.80;4.40;;;20.70;80.70;;;;;;5073860;28;20918;-44
2022/05/18 06:35:33;;;;;;;5.30;4.50;;;20.70;81.00;;;;;;5075035;28;20438;-45
2022/05/18 06:37:59;;;;;;;4.83;4.33;;;20.80;80.10;;;;;;5075992;28;20286;-45
2022/05/18 06:41:21;;;;;;;5.10;4.60;;;20.80;79.60;;;;;;5076725;28;20445;-45
2022/05/18 06:43:11;;;;;;;5.50;4.70;;;20.90;79.80;;;;;;5074723;28;20452;-45
2022/05/18 06:45:37;;;;;;;7.53;4.70;;;21.00;80.30;;;;;;5073280;28;20427;-45
2022/05/18 06:48:03;;;;;;;5.77;4.70;;;21.00;78.90;;;;;;5056147;28;20435;-45
2022/05/18 06:50:29;;;;;;;5.60;4.27;;;21.10;78.90;;;;;;5074166;28;20503;-45
2022/05/18 06:52:54;;;;;;;5.90;5.33;;;21.10;79.30;;;;;;5074212;28;20406;-45
2022/05/18 06:55:20;;;;;;;5.17;4.10;;;21.20;78.50;;;;;;5073880;28;20184;-45
2022/05/18 06:57:47;;;;;;;4.80;4.40;;;21.20;77.60;;;;;;5073507;28;20763;-45
2022/05/18 07:00:14;;;;;;;5.23;4.33;;;21.30;77.70;;;;;;5074104;28;20187;-45
2022/05/18 07:02:40;;;;;;;4.93;4.43;;;21.50;77.80;;;;;;5075396;28;20462;-48
2022/05/18 07:05:06;;;;;;;4.80;4.40;;;21.60;76.90;;;;;;5075041;28;20682;-46
2022/05/18 07:07:32;;;;;;;4.73;4.20;;;21.60;77.20;;;;;;5070060;28;20431;-44
2022/05/18 07:09:58;;;;;;;5.07;4.20;;;21.70;77.20;;;;;;5074673;28;20563;-45
2022/05/18 07:12:24;;;;;;;5.63;5.13;;;21.90;77.30;;;;;;5074705;28;20729;-48
2022/05/18 07:14:49;;;;;;;4.93;4.40;;;22.00;77.10;;;;;;5075012;28;20179;-45
2022/05/18 07:17:15;;;;;;;5.07;4.60;;;22.20;76.00;;;;;;5065802;28;20607;-45
2022/05/18 07:19:40;;;;;;;4.67;4.13;;;22.30;74.70;;;;;;5075352;28;20179;-45
2022/05/18 07:22:06;;;;;;;5.97;4.70;;;22.30;74.50;;;;;;5063694;28;20290;-46
2022/05/18 07:24:32;;;;;;;7.33;5.10;;;22.40;74.00;;;;;;5051974;28;20186;-43
2022/05/18 07:26:58;;;;;;;5.17;4.40;;;22.50;73.10;;;;;;5074810;28;20188;-45
2022/05/18 07:29:23;;;;;;;5.83;4.83;;;22.60;73.10;;;;;;5075631;28;20459;-46
2022/05/18 07:34:35;;;;;;;4.40;4.00;;;22.80;72.60;;;;;;5074043;28;20424;-47
2022/05/18 07:37:01;;;;;;;6.10;4.80;;;23.00;72.70;;;;;;5073406;28;20417;-47
2022/05/18 07:39:28;;;;;;;5.20;4.50;;;23.20;71.30;;;;;;5073891;28;20988;-43
2022/05/18 07:41:55;;;;;;;4.80;4.40;;;23.40;69.90;;;;;;5074909;28;20472;-48
2022/05/18 07:44:21;;;;;;;5.00;4.50;;;23.50;70.00;;;;;;5056826;28;20853;-45
2022/05/18 07:46:47;;;;;;;4.87;4.43;;;23.60;70.60;;;;;;5077081;28;20446;-44
2022/05/18 07:49:13;;;;;;;4.63;4.20;;;23.50;69.50;;;;;;5079072;28;20432;-45
2022/05/18 07:51:39;;;;;;;4.47;4.07;;;23.50;69.00;;;;;;5079691;28;20425;-45
2022/05/18 07:54:05;;;;;;;5.10;4.60;;;23.70;69.80;;;;;;5078258;28;20180;-44
2022/05/18 07:56:30;;;;;;;5.60;4.73;;;23.70;68.20;;;;;;5078708;28;20183;-43
2022/05/18 07:58:56;;;;;;;6.07;4.70;;;23.70;69.20;;;;;;5078819;28;20406;-44
2022/05/18 08:01:22;;;;;;;5.33;4.87;;;23.80;68.90;;;;;;5078345;28;20201;-43
2022/05/18 08:03:48;;;;;;;7.43;4.60;;;23.90;67.20;;;;;;5061794;28;20219;-44
2022/05/18 08:06:15;;;;;;;5.43;4.90;;;23.90;67.70;;;;;;5078490;28;20594;-44
2022/05/18 08:08:41;;;;;;;5.20;4.80;;;23.90;68.00;;;;;;5079488;28;20405;-46
2022/05/18 08:16:34;;;;;;;5.17;4.77;;;24.70;64.30;;;;;;5076852;28;20448;-45
2022/05/18 08:19:01;;;;;;;5.00;4.40;;;24.90;63.70;;;;;;5041714;28;20424;-46
2022/05/18 08:21:27;;;;;;;4.93;4.40;;;24.90;63.30;;;;;;5068782;28;20203;-42
2022/05/18 08:23:54;;;;;;;4.57;4.17;;;25.10;62.50;;;;;;5077865;28;20421;-43
2022/05/18 08:26:20;;;;;;;5.37;4.67;;;25.10;61.00;;;;;;5077258;28;20405;-44
2022/05/18 08:28:45;;;;;;;5.10;4.70;;;25.20;59.00;;;;;;5059157;28;20435;-42
2022/05/18 08:31:12;;;;;;;7.00;5.03;;;25.10;59.40;;;;;;5076447;28;20288;-43
2022/05/18 08:33:38;;;;;;;5.40;4.87;;;25.10;59.80;;;;;;5077387;28;20223;-44
2022/05/18 08:36:06;;;;;;;6.30;4.93;;;25.30;59.50;;;;;;5069574;28;20433;-43
2022/05/18 08:38:33;;;;;;;5.60;5.03;;;25.60;58.70;;;;;;5060157;28;20427;-43
2022/05/18 08:41:34;;;;;;;5.47;5.03;;;25.70;58.70;;;;;;5078067;28;20940;-44
2022/05/18 08:44:03;;;;;;;4.93;4.43;;;26.00;57.80;;;;;;5069841;28;20427;-45
2022/05/18 08:47:10;;;;;;;5.43;4.80;;;26.10;56.10;;;;;;5078787;28;20934;-44
2022/05/18 08:49:46;;;;;;;5.30;4.80;;;26.10;56.10;;;;;;5000057;28;20428;-45
2022/05/18 08:52:37;;;;;;;4.70;4.30;;;26.00;54.40;;;;;;5072281;28;20443;-42
2022/05/18 08:55:06;;;;;;;5.10;4.70;;;25.90;55.20;;;;;;5077799;28;20427;-45
2022/05/18 08:57:39;;;;;;;4.87;4.47;;;26.00;55.00;;;;;;5078017;28;20428;-46
2022/05/18 09:00:19;;;;;;;5.03;4.57;;;26.40;54.10;;;;;;5060601;28;20436;-45
2022/05/18 09:02:45;;;;;;;5.00;4.43;;;26.60;53.70;;;;;;5079368;28;20511;-43
2022/05/18 09:05:38;;;;;;;5.27;4.77;;;27.00;52.50;;;;;;5060629;28;20424;-43
2022/05/18 09:08:14;;;;;;;6.40;4.83;;;27.30;51.80;;;;;;5059875;28;20415;-44
2022/05/18 09:10:49;;;;;;;5.00;4.60;;;27.40;51.80;;;;;;5060317;28;20425;-47
2022/05/18 09:13:15;;;;;;;4.70;4.30;;;27.40;51.80;;;;;;5077503;28;20686;-44
2022/05/18 09:15:59;;;;;;;4.07;3.77;;;27.30;51.40;;;;;;5074173;28;20427;-44
2022/05/18 09:19:05;;;;;;;4.90;4.43;;;27.40;50.90;;;;;;5075131;28;20752;-45
2022/05/18 09:21:56;;;;;;;3.90;3.50;;;27.40;50.40;;;;;;5061879;28;20451;-45
2022/05/18 09:24:28;;;;;;;5.40;4.70;;;27.50;51.00;;;;;;5077874;28;20476;-48
2022/05/18 09:27:26;;;;;;;4.53;4.13;;;27.80;52.90;;;;;;5077229;28;20414;-45
2022/05/18 09:29:58;;;;;;;4.50;3.93;;;28.10;48.80;;;;;;5067457;28;21015;-45
2022/05/18 09:32:47;;;;;;;4.70;4.20;;;28.10;47.10;;;;;;5077990;28;20452;-47
2022/05/18 09:35:16;;;;;;;3.53;3.23;;;28.20;48.10;;;;;;5047263;28;20473;-44
2022/05/18 09:37:45;;;;;;;4.63;4.23;;;28.20;47.20;;;;;;5078131;28;20720;-50
2022/05/18 09:40:24;;;;;;;6.20;4.03;;;28.30;47.60;;;;;;5076946;28;20437;-43
2022/05/18 09:43:33;;;;;;;4.03;3.67;;;28.60;47.80;;;;;;5059092;28;20607;-47
2022/05/18 09:45:59;;;;;;;3.63;3.33;;;29.20;48.80;;;;;;5067964;28;20443;-44
2022/05/18 09:48:39;;;;;;;3.93;3.63;;;29.50;43.50;;;;;;5058260;28;20419;-45
2022/05/18 09:51:06;;;;;;;4.10;3.70;;;29.40;43.50;;;;;;5068281;28;20260;-45
2022/05/18 09:53:32;;;;;;;3.07;2.87;;;29.60;44.50;;;;;;5058437;28;20420;-45
2022/05/18 09:55:57;;;;;;;3.53;3.23;;;29.70;43.10;;;;;;5060125;28;20426;-46
2022/05/18 09:58:38;;;;;;;3.47;3.13;;;29.70;42.20;;;;;;5076746;28;20177;-44
2022/05/18 10:09:47;;;;;;;4.13;3.73;;;29.50;43.40;;;;;;5073686;28;20501;-49
2022/05/18 10:12:22;;;;;;;3.47;3.17;;;29.70;43.40;;;;;;5073505;28;20558;-46
2022/05/18 10:14:51;;;;;;;3.50;3.20;;;29.60;42.00;;;;;;5075419;28;20431;-46
2022/05/18 10:17:21;;;;;;;3.63;2.90;;;29.50;42.70;;;;;;5056230;28;20461;-46
2022/05/18 10:19:59;;;;;;;4.07;3.60;;;29.50;42.90;;;;;;5073931;28;20424;-45
2022/05/18 10:22:27;;;;;;;3.47;3.00;;;30.10;43.80;;;;;;5057155;28;20478;-48
2022/05/18 10:24:53;;;;;;;3.60;3.30;;;30.10;42.20;;;;;;5074857;28;20410;-46
2022/05/18 10:27:30;;;;;;;3.53;3.23;;;30.20;41.70;;;;;;5071719;28;20459;-49
2022/05/18 10:30:15;;;;;;;3.20;2.90;;;30.00;41.00;;;;;;5070001;28;20268;-43
2022/05/18 10:33:07;;;;;;;3.10;2.80;;;29.50;40.90;;;;;;5050671;28;20464;-45
2022/05/18 10:35:44;;;;;;;4.33;3.53;;;29.70;41.60;;;;;;5022025;28;20443;-43
2022/05/18 10:38:22;;;;;;;3.50;3.20;;;29.70;42.10;;;;;;5055290;28;20479;-42
2022/05/18 10:40:48;;;;;;;3.90;3.60;;;29.50;40.70;;;;;;5054801;28;20439;-47
2022/05/18 10:43:28;;;;;;;4.50;2.93;;;29.80;41.60;;;;;;5038386;28;20413;-44
2022/05/18 10:45:56;;;;;;;4.43;3.77;;;30.50;42.50;;;;;;5054579;28;20444;-45
2022/05/18 10:48:23;;;;;;;3.40;3.10;;;30.90;40.90;;;;;;5035422;28;20389;-45
2022/05/18 10:50:59;;;;;;;4.33;3.93;;;31.20;40.90;;;;;;5035536;28;20425;-47
2022/05/18 10:53:32;;;;;;;4.43;4.03;;;31.80;41.80;;;;;;5037564;28;20410;-46
2022/05/18 10:56:03;;;;;;;4.97;4.43;;;32.30;40.20;;;;;;5053075;28;20425;-43
2022/05/18 10:58:42;;;;;;;4.63;4.23;;;31.80;39.50;;;;;;5035549;28;20436;-44
2022/05/18 11:01:49;;;;;;;4.73;4.33;;;31.60;40.10;;;;;;5036045;28;20660;-44
2022/05/18 11:05:13;;;;;;;6.67;3.63;;;31.60;41.00;;;;;;5002203;28;20900;-42
2022/05/18 11:07:38;;;;;;;4.57;3.60;;;31.50;40.00;;;;;;4982576;28;20434;-44
2022/05/18 11:10:04;;;;;;;4.20;3.90;;;31.30;40.00;;;;;;5030502;28;20394;-44
2022/05/18 11:12:58;;;;;;;7.53;3.57;;;31.10;40.00;;;;;;5015384;28;20597;-46
2022/05/18 11:15:44;;;;;;;4.70;4.07;;;30.60;40.70;;;;;;5018586;28;20415;-44
2022/05/18 11:18:28;;;;;;;4.50;3.60;;;30.20;41.70;;;;;;5036978;28;20427;-44
2022/05/18 11:21:12;;;;;;;4.00;3.57;;;30.40;40.60;;;;;;5044080;28;20437;-45
2022/05/18 11:23:56;;;;;;;4.57;4.17;;;30.20;41.30;;;;;;5051389;28;20413;-42
2022/05/18 11:26:40;;;;;;;5.87;3.80;;;30.20;42.20;;;;;;5053879;28;20395;-44
2022/05/18 11:29:26;;;;;;;6.03;4.10;;;30.50;41.90;;;;;;5049954;28;20424;-43
2022/05/18 11:32:01;;;;;;;4.90;4.40;;;30.90;41.20;;;;;;5052587;28;20414;-45
2022/05/18 11:34:45;;;;;;;4.00;3.70;;;30.70;40.70;;;;;;5072336;28;20747;-46
2022/05/18 11:37:22;;;;;;;4.27;3.87;;;30.10;41.10;;;;;;5072724;28;20431;-45
2022/05/18 11:40:11;;;;;;;3.90;3.50;;;30.10;41.50;;;;;;5070009;28;20455;-44
2022/05/18 11:42:50;;;;;;;3.80;3.50;;;30.30;42.20;;;;;;5071903;28;20479;-46
2022/05/18 11:45:33;;;;;;;3.90;3.30;;;31.00;41.00;;;;;;5074512;28;20431;-44
2022/05/18 11:48:05;;;;;;;3.70;3.30;;;31.50;39.40;;;;;;5075016;28;20415;-46
2022/05/18 11:50:41;;;;;;;5.20;4.70;;;32.20;41.40;;;;;;5075144;28;20430;-45
2022/05/18 11:53:38;;;;;;;4.17;3.43;;;32.80;38.40;;;;;;5054475;28;20829;-44
2022/05/18 11:56:38;;;;;;;4.37;3.80;;;32.50;38.70;;;;;;5048995;28;20461;-46
2022/05/18 11:59:21;;;;;;;4.77;4.00;;;32.40;39.00;;;;;;5053934;28;20772;-44
2022/05/18 12:01:49;;;;;;;4.10;3.67;;;32.80;38.20;;;;;;5053583;28;20474;-45
2022/05/18 12:04:33;;;;;;;4.00;3.43;;;33.30;38.50;;;;;;5054318;28;20476;-43
2022/05/18 12:07:04;;;;;;;5.83;4.13;;;33.60;39.50;;;;;;5054767;28;20463;-43
2022/05/18 12:09:48;;;;;;;4.43;3.57;;;34.30;39.30;;;;;;5035472;28;20416;-45
2022/05/18 12:12:28;;;;;;;4.63;3.63;;;35.00;38.90;;;;;;5062767;28;20691;-43
2022/05/18 12:15:18;;;;;;;3.67;3.20;;;35.30;34.40;;;;;;5072643;28;20426;-45
2022/05/18 12:18:19;;;;;;;3.43;3.13;;;34.70;34.40;;;;;;5075845;28;20419;-43
2022/05/18 12:20:47;;;;;;;4.00;3.60;;;34.90;34.90;;;;;;5045791;28;20478;-43
2022/05/18 12:23:17;;;;;;;4.57;4.17;;;34.30;35.30;;;;;;5056735;28;20833;-45
2022/05/18 12:25:43;;;;;;;3.77;3.37;;;33.50;35.70;;;;;;5055410;28;20493;-46
2022/05/18 12:28:11;;;;;;;4.30;3.90;;;33.20;35.90;;;;;;5054963;28;20409;-44
2022/05/18 12:30:39;;;;;;;5.80;4.10;;;33.60;37.20;;;;;;5057321;28;20435;-42
2022/05/18 12:33:06;;;;;;;3.20;2.90;;;34.10;34.80;;;;;;5069222;28;20442;-44
2022/05/18 12:35:57;;;;;;;3.93;3.53;;;34.20;34.50;;;;;;5038792;28;20450;-47
2022/05/18 12:38:29;;;;;;;3.60;3.30;;;33.80;35.50;;;;;;5038874;28;20930;-45
2022/05/18 12:40:57;;;;;;;3.63;3.03;;;34.00;35.70;;;;;;5038952;28;20437;-46
2022/05/18 12:43:52;;;;;;;4.57;2.93;;;34.10;36.30;;;;;;5039145;28;20410;-43
2022/05/18 12:46:27;;;;;;;4.03;2.60;;;34.50;33.90;;;;;;5038517;28;20439;-43
2022/05/18 12:49:00;;;;;;;4.30;3.90;;;34.70;33.70;;;;;;5021278;28;20496;-43
2022/05/18 12:51:25;;;;;;;3.23;2.90;;;34.90;33.90;;;;;;5039053;28;20494;-41
2022/05/18 12:53:51;;;;;;;4.13;2.80;;;35.00;33.70;;;;;;5055060;28;20390;-46
2022/05/18 12:56:20;;;;;;;3.57;3.27;;;34.70;35.70;;;;;;5056405;28;20548;-44
2022/05/18 12:58:59;;;;;;;3.43;3.13;;;35.10;35.30;;;;;;5038356;28;20585;-42
2022/05/18 13:01:29;;;;;;;3.50;2.60;;;35.20;33.50;;;;;;5021895;28;20549;-42
2022/05/18 13:03:54;;;;;;;3.33;2.90;;;35.30;34.40;;;;;;5056032;28;20386;-44
2022/05/18 13:06:29;;;;;;;3.90;2.83;;;35.70;32.60;;;;;;5055953;28;20410;-44
2022/05/18 13:09:03;;;;;;;3.60;2.83;;;36.10;32.10;;;;;;5055555;28;20220;-46
2022/05/18 13:11:59;;;;;;;3.83;3.30;;;36.50;33.00;;;;;;5039515;28;20415;-43
2022/05/18 13:14:38;;;;;;;4.80;3.27;;;36.50;32.70;;;;;;5056667;28;20429;-47
2022/05/18 13:17:11;;;;;;;3.40;3.10;;;36.20;31.80;;;;;;5039864;28;20395;-45
2022/05/18 13:19:40;;;;;;;3.27;2.90;;;35.40;32.10;;;;;;5056800;28;20413;-42
2022/05/18 13:22:17;;;;;;;7.40;3.00;;;34.70;32.70;;;;;;5039011;28;20491;-44
2022/05/18 13:24:45;;;;;;;3.37;3.13;;;34.30;34.50;;;;;;5039569;28;20430;-45
2022/05/18 13:27:15;;;;;;;3.53;3.10;;;34.00;33.70;;;;;;5056120;28;20798;-45
2022/05/18 13:29:42;;;;;;;3.23;2.93;;;33.60;35.20;;;;;;5054838;28;20456;-44